Tropical Cyclones
[Index]
Main Index Home Page Stock Weather Photos Extreme Storms Discussion Storm News and Storm Chasing Reports Tropical Cyclones / Hurricanes / Typhoons Weather Data and Links Wild Fires / Bushfires Weather Observation Techniques Weather Picture Catalogue Tornado Pictures and Reports Stock Video Footage and DVDs for sale
Season 2010-2011 Tropical Cyclone CHERONO Track Map
Season 2010-2011 Summaries (Operational Data): [AU] [SIO] [SPAC] [SH]
<<- Previous TC | 2010-2011 Season | Next TC ->>

click for intensity scale information  Lat/long Grid: Show Hide

 Date Labels: Show Hide

Operational Tropical Cyclone Data : JTWC Advisories

Name: CHERONO
Number: 1118

14 Mar 2011 06:00 UTC to 25 Mar 2011 06:00 UTC

    date/time    lat    long     hPa   cat  kts
2011-03-14 06   11.0    87.0    1002         25          
2011-03-14 12   11.7    85.8    1002         25          
2011-03-14 18   12.0    85.7    1002         25          
2011-03-15 00   12.3    85.0    1002         25          
2011-03-15 06   13.0    84.3    1002         25          
2011-03-15 12   13.0    83.6    1002         25          
2011-03-15 23   13.2    82.0                             
2011-03-16 02   12.6    81.7                             
2011-03-16 05   12.8    81.2                             
2011-03-16 12   14.1    80.7    1000         25          
2011-03-16 18   14.6    79.6                             
2011-03-17 00   14.8    78.2     999         25          
2011-03-17 06   14.5    76.4     998         30          
2011-03-17 12   15.2    75.2     995    1    35          
2011-03-17 18   15.9    74.3     995    1    35          
2011-03-18 00   15.9    74.0     992    1    40          
2011-03-18 06   16.5    72.3     992    1    40          
2011-03-18 12   16.8    70.6     995    1    40          
2011-03-18 18   17.2    69.7     995    1    35          
2011-03-19 00   17.5    68.4     995    1    35          
2011-03-19 06   19.0    67.4     995    1    35          
2011-03-19 12   19.5    66.0     997         30          
2011-03-19 18   19.9    64.2     997         30          
2011-03-20 00   20.5    63.0     998         30          
2011-03-20 06   20.9    61.7     998         30          
2011-03-20 12   21.7    60.5     997         30          
2011-03-20 18   22.3    59.8     997         30          
2011-03-21 00   22.8    58.7     997         30          
2011-03-21 06   23.1    58.1     997         30          
2011-03-21 12   23.5    57.4     997         30          
2011-03-21 18   24.3    57.9     997         30          
2011-03-22 00   25.9    58.1     999         25          
2011-03-22 06   25.6    56.7     004        25           
2011-03-22 12   26.8    57.3    1004         25          
2011-03-22 18   27.6    58.2    1004         25          
2011-03-23 00   27.9    59.0    1004         25          
2011-03-23 06   29.7    62.4    1006                     
2011-03-23 12   30.0    64.7    1005                     
2011-03-23 18   29.6    65.4    1006                     
2011-03-24 00   30.0    66.3    1005                     
2011-03-24 06   29.4    68.9    1006                     
2011-03-24 12   29.9    71.6    1007                     
2011-03-24 18   30.0    72.6    1008                     
2011-03-25 00   30.2    75.0    1009                     
2011-03-25 06   29.4    77.0    1011                     
Winds are 10-min average.

Tropical cyclone tracks developed by Michael Bath using operational warnings and advisories and Google Maps.


[Australian Severe Weather index] [Copyright Notice] [Email Contacts] [Search This Site] [Privacy Policy]
Document: tropical_cyclone_cherono.htm Updated: 28 May 2013